sensor_id;sensor_type;location;lat;lon;timestamp;pressure;altitude;pressure_sealevel;temperature;humidity
28911;BME280;16028;42.642;23.310;2022-11-15T00:00:45;94597.91;;;5.26;96.31
28911;BME280;16028;42.642;23.310;2022-11-15T00:03:13;94601.69;;;5.20;96.04
28911;BME280;16028;42.642;23.310;2022-11-15T00:05:40;94598.50;;;5.17;96.64
28911;BME280;16028;42.642;23.310;2022-11-15T00:08:07;94594.34;;;5.14;97.22
28911;BME280;16028;42.642;23.310;2022-11-15T00:10:34;94593.63;;;5.12;97.24
28911;BME280;16028;42.642;23.310;2022-11-15T00:13:04;94594.56;;;5.11;97.49
28911;BME280;16028;42.642;23.310;2022-11-15T00:15:34;94585.28;;;5.09;97.63
28911;BME280;16028;42.642;23.310;2022-11-15T00:18:01;94593.84;;;5.09;97.91
28911;BME280;16028;42.642;23.310;2022-11-15T00:20:28;94584.25;;;5.11;98.17
28911;BME280;16028;42.642;23.310;2022-11-15T00:22:55;94596.31;;;5.11;97.96
28911;BME280;16028;42.642;23.310;2022-11-15T00:25:21;94587.66;;;5.12;97.58
28911;BME280;16028;42.642;23.310;2022-11-15T00:27:48;94576.72;;;5.08;97.61
28911;BME280;16028;42.642;23.310;2022-11-15T00:30:17;94581.97;;;5.07;97.86
28911;BME280;16028;42.642;23.310;2022-11-15T00:32:45;94580.94;;;5.09;98.40
28911;BME280;16028;42.642;23.310;2022-11-15T00:35:12;94572.09;;;5.13;98.41
28911;BME280;16028;42.642;23.310;2022-11-15T00:37:38;94568.69;;;5.13;98.62
28911;BME280;16028;42.642;23.310;2022-11-15T00:40:06;94569.31;;;5.16;98.86
28911;BME280;16028;42.642;23.310;2022-11-15T00:42:33;94564.47;;;5.24;98.88
28911;BME280;16028;42.642;23.310;2022-11-15T00:45:00;94566.22;;;5.24;97.88
28911;BME280;16028;42.642;23.310;2022-11-15T00:47:26;94566.22;;;5.24;97.41
28911;BME280;16028;42.642;23.310;2022-11-15T00:49:55;94571.56;;;5.21;96.92
28911;BME280;16028;42.642;23.310;2022-11-15T00:52:21;94575.19;;;5.18;97.06
28911;BME280;16028;42.642;23.310;2022-11-15T00:54:48;94570.03;;;5.18;96.41
28911;BME280;16028;42.642;23.310;2022-11-15T00:57:15;94559.00;;;5.16;96.15
28911;BME280;16028;42.642;23.310;2022-11-15T00:59:41;94560.22;;;5.11;95.87
28911;BME280;16028;42.642;23.310;2022-11-15T01:02:08;94560.63;;;5.05;96.09
28911;BME280;16028;42.642;23.310;2022-11-15T01:04:35;94562.69;;;5.00;96.48
28911;BME280;16028;42.642;23.310;2022-11-15T01:07:03;94559.38;;;4.98;96.97
28911;BME280;16028;42.642;23.310;2022-11-15T01:09:29;94557.72;;;4.97;97.16
28911;BME280;16028;42.642;23.310;2022-11-15T01:11:56;94554.31;;;4.96;97.20
28911;BME280;16028;42.642;23.310;2022-11-15T01:14:23;94556.91;;;4.96;97.30
28911;BME280;16028;42.642;23.310;2022-11-15T01:16:49;94562.34;;;4.92;97.18
28911;BME280;16028;42.642;23.310;2022-11-15T01:19:16;94560.59;;;4.92;97.34
28911;BME280;16028;42.642;23.310;2022-11-15T01:21:43;94556.28;;;4.93;97.59
28911;BME280;16028;42.642;23.310;2022-11-15T01:24:12;94562.34;;;4.92;97.88
28911;BME280;16028;42.642;23.310;2022-11-15T01:26:39;94548.66;;;4.91;97.60
28911;BME280;16028;42.642;23.310;2022-11-15T01:29:06;94547.81;;;4.91;97.54
28911;BME280;16028;42.642;23.310;2022-11-15T01:31:33;94546.06;;;4.91;97.49
28911;BME280;16028;42.642;23.310;2022-11-15T01:33:59;94550.50;;;4.89;97.60
28911;BME280;16028;42.642;23.310;2022-11-15T01:36:26;94545.66;;;4.85;98.01
28911;BME280;16028;42.642;23.310;2022-11-15T01:38:53;94555.00;;;4.86;98.12
28911;BME280;16028;42.642;23.310;2022-11-15T01:41:23;94548.13;;;4.86;98.64
28911;BME280;16028;42.642;23.310;2022-11-15T01:43:52;94554.31;;;4.84;98.11
28911;BME280;16028;42.642;23.310;2022-11-15T01:46:25;94547.81;;;4.78;97.71
28911;BME280;16028;42.642;23.310;2022-11-15T01:48:55;94546.06;;;4.78;98.14
28911;BME280;16028;42.642;23.310;2022-11-15T01:51:26;94543.38;;;4.80;97.89
28911;BME280;16028;42.642;23.310;2022-11-15T01:53:56;94543.28;;;4.82;98.14
28911;BME280;16028;42.642;23.310;2022-11-15T01:56:29;94534.81;;;4.79;98.12
28911;BME280;16028;42.642;23.310;2022-11-15T01:58:58;94544.28;;;4.79;98.53
28911;BME280;16028;42.642;23.310;2022-11-15T02:01:28;94539.13;;;4.79;98.20
28911;BME280;16028;42.642;23.310;2022-11-15T02:03:58;94543.47;;;4.78;97.79
28911;BME280;16028;42.642;23.310;2022-11-15T02:06:26;94547.81;;;4.78;97.77
28911;BME280;16028;42.642;23.310;2022-11-15T02:08:54;94552.31;;;4.74;97.84
28911;BME280;16028;42.642;23.310;2022-11-15T02:11:22;94545.72;;;4.70;97.85
28911;BME280;16028;42.642;23.310;2022-11-15T02:13:50;94544.69;;;4.73;98.04
28911;BME280;16028;42.642;23.310;2022-11-15T02:16:24;94536.03;;;4.74;98.26
28911;BME280;16028;42.642;23.310;2022-11-15T02:18:59;94540.47;;;4.72;98.80
28911;BME280;16028;42.642;23.310;2022-11-15T02:21:34;94540.28;;;4.75;98.64
28911;BME280;16028;42.642;23.310;2022-11-15T02:24:27;94538.41;;;4.77;98.44
28911;BME280;16028;42.642;23.310;2022-11-15T02:30:31;94540.28;;;4.75;98.53
28911;BME280;16028;42.642;23.310;2022-11-15T02:33:09;94539.53;;;4.73;97.94
28911;BME280;16028;42.642;23.310;2022-11-15T02:35:44;94532.63;;;4.73;98.33
28911;BME280;16028;42.642;23.310;2022-11-15T02:38:16;94525.09;;;4.70;97.87
28911;BME280;16028;42.642;23.310;2022-11-15T02:40:50;94532.13;;;4.68;97.73
28911;BME280;16028;42.642;23.310;2022-11-15T02:43:25;94533.03;;;4.67;98.21
28911;BME280;16028;42.642;23.310;2022-11-15T02:46:20;94531.38;;;4.66;98.27
28911;BME280;16028;42.642;23.310;2022-11-15T02:49:10;94538.28;;;4.66;98.64
28911;BME280;16028;42.642;23.310;2022-11-15T02:51:38;94536.44;;;4.68;98.77
28911;BME280;16028;42.642;23.310;2022-11-15T02:54:06;94538.81;;;4.71;98.70
28911;BME280;16028;42.642;23.310;2022-11-15T02:56:32;94530.16;;;4.72;98.50
28911;BME280;16028;42.642;23.310;2022-11-15T02:59:23;94532.75;;;4.72;98.96
28911;BME280;16028;42.642;23.310;2022-11-15T03:02:07;94540.16;;;4.76;99.24
28911;BME280;16028;42.642;23.310;2022-11-15T03:04:43;94537.91;;;4.85;99.52
28911;BME280;16028;42.642;23.310;2022-11-15T03:07:14;94542.03;;;4.87;99.65
28911;BME280;16028;42.642;23.310;2022-11-15T03:09:51;94545.25;;;4.91;99.74
28911;BME280;16028;42.642;23.310;2022-11-15T03:12:26;94533.91;;;4.93;99.71
28911;BME280;16028;42.642;23.310;2022-11-15T03:14:56;94528.97;;;4.90;100.00
28911;BME280;16028;42.642;23.310;2022-11-15T03:17:30;94532.25;;;4.92;100.00
28911;BME280;16028;42.642;23.310;2022-11-15T03:19:59;94531.13;;;4.96;100.00
28911;BME280;16028;42.642;23.310;2022-11-15T03:22:30;94524.72;;;5.02;100.00
28911;BME280;16028;42.642;23.310;2022-11-15T03:25:04;94523.41;;;5.09;100.00
28911;BME280;16028;42.642;23.310;2022-11-15T03:27:36;94518.56;;;5.17;100.00
28911;BME280;16028;42.642;23.310;2022-11-15T03:30:07;94519.56;;;5.27;100.00
28911;BME280;16028;42.642;23.310;2022-11-15T03:32:38;94532.06;;;5.33;100.00
28911;BME280;16028;42.642;23.310;2022-11-15T03:35:08;94514.53;;;5.38;100.00
28911;BME280;16028;42.642;23.310;2022-11-15T03:37:39;94512.38;;;5.45;100.00
28911;BME280;16028;42.642;23.310;2022-11-15T03:40:08;94514.13;;;5.44;100.00
28911;BME280;16028;42.642;23.310;2022-11-15T03:42:39;94506.47;;;5.43;100.00
28911;BME280;16028;42.642;23.310;2022-11-15T03:45:13;94501.00;;;5.47;100.00
28911;BME280;16028;42.642;23.310;2022-11-15T03:47:46;94502.25;;;5.54;100.00
28911;BME280;16028;42.642;23.310;2022-11-15T03:50:16;94499.88;;;5.51;100.00
28911;BME280;16028;42.642;23.310;2022-11-15T03:52:45;94491.31;;;5.51;100.00
28911;BME280;16028;42.642;23.310;2022-11-15T03:55:14;94489.44;;;5.53;100.00
28911;BME280;16028;42.642;23.310;2022-11-15T03:57:42;94493.97;;;5.49;100.00
28911;BME280;16028;42.642;23.310;2022-11-15T04:00:10;94493.28;;;5.47;100.00
28911;BME280;16028;42.642;23.310;2022-11-15T04:02:37;94487.50;;;5.44;100.00
28911;BME280;16028;42.642;23.310;2022-11-15T04:05:06;94492.16;;;5.39;100.00
28911;BME280;16028;42.642;23.310;2022-11-15T04:07:33;94495.03;;;5.34;100.00
28911;BME280;16028;42.642;23.310;2022-11-15T04:09:59;94496.06;;;5.31;100.00
28911;BME280;16028;42.642;23.310;2022-11-15T04:12:29;94492.78;;;5.29;100.00
28911;BME280;16028;42.642;23.310;2022-11-15T04:15:00;94493.91;;;5.25;100.00
28911;BME280;16028;42.642;23.310;2022-11-15T04:17:33;94482.66;;;5.14;100.00
28911;BME280;16028;42.642;23.310;2022-11-15T04:20:00;94484.84;;;5.07;100.00
28911;BME280;16028;42.642;23.310;2022-11-15T04:22:45;94483.41;;;5.03;100.00
28911;BME280;16028;42.642;23.310;2022-11-15T04:25:30;94480.91;;;5.02;100.00
28911;BME280;16028;42.642;23.310;2022-11-15T04:27:56;94492.97;;;5.01;100.00
28911;BME280;16028;42.642;23.310;2022-11-15T04:30:23;94489.69;;;4.99;100.00
28911;BME280;16028;42.642;23.310;2022-11-15T04:32:50;94485.44;;;4.98;100.00
28911;BME280;16028;42.642;23.310;2022-11-15T04:35:16;94485.44;;;4.98;100.00
28911;BME280;16028;42.642;23.310;2022-11-15T04:37:43;94482.88;;;4.98;100.00
28911;BME280;16028;42.642;23.310;2022-11-15T04:40:11;94481.13;;;4.99;100.00
28911;BME280;16028;42.642;23.310;2022-11-15T04:42:40;94481.75;;;5.02;100.00
28911;BME280;16028;42.642;23.310;2022-11-15T04:45:07;94490.81;;;5.08;100.00
28911;BME280;16028;42.642;23.310;2022-11-15T04:47:34;94490.38;;;5.14;100.00
28911;BME280;16028;42.642;23.310;2022-11-15T04:50:01;94481.53;;;5.18;100.00
28911;BME280;16028;42.642;23.310;2022-11-15T04:52:28;94493.91;;;5.25;100.00
28911;BME280;16028;42.642;23.310;2022-11-15T04:54:54;94488.41;;;5.30;100.00
28911;BME280;16028;42.642;23.310;2022-11-15T04:57:22;94486.59;;;5.32;100.00
28911;BME280;16028;42.642;23.310;2022-11-15T04:59:49;94486.69;;;5.30;100.00
28911;BME280;16028;42.642;23.310;2022-11-15T05:02:16;94481.31;;;5.33;100.00
28911;BME280;16028;42.642;23.310;2022-11-15T05:04:42;94482.03;;;5.36;100.00
28911;BME280;16028;42.642;23.310;2022-11-15T05:07:08;94488.75;;;5.38;100.00
28911;BME280;16028;42.642;23.310;2022-11-15T05:09:35;94484.63;;;5.36;100.00
28911;BME280;16028;42.642;23.310;2022-11-15T05:12:01;94490.69;;;5.34;100.00
28911;BME280;16028;42.642;23.310;2022-11-15T05:14:30;94491.41;;;5.37;100.00
28911;BME280;16028;42.642;23.310;2022-11-15T05:16:56;94491.53;;;5.35;100.00
28911;BME280;16028;42.642;23.310;2022-11-15T05:19:23;94494.53;;;5.42;100.00
28911;BME280;16028;42.642;23.310;2022-11-15T05:21:50;94491.19;;;5.40;100.00
28911;BME280;16028;42.642;23.310;2022-11-15T05:24:16;94496.47;;;5.38;100.00
28911;BME280;16028;42.642;23.310;2022-11-15T05:26:43;94485.84;;;5.30;100.00
28911;BME280;16028;42.642;23.310;2022-11-15T05:29:10;94490.38;;;5.14;100.00
28911;BME280;16028;42.642;23.310;2022-11-15T05:31:40;94487.44;;;5.07;100.00
28911;BME280;16028;42.642;23.310;2022-11-15T05:34:08;94485.03;;;5.04;100.00
28911;BME280;16028;42.642;23.310;2022-11-15T05:36:36;94481.44;;;5.07;100.00
28911;BME280;16028;42.642;23.310;2022-11-15T05:39:05;94488.13;;;5.09;100.00
28911;BME280;16028;42.642;23.310;2022-11-15T05:41:35;94484.53;;;5.12;100.00
28911;BME280;16028;42.642;23.310;2022-11-15T05:44:03;94482.56;;;5.15;100.00
28911;BME280;16028;42.642;23.310;2022-11-15T05:46:33;94489.78;;;5.23;100.00
28911;BME280;16028;42.642;23.310;2022-11-15T05:49:02;94480.91;;;5.27;100.00
28911;BME280;16028;42.642;23.310;2022-11-15T05:51:29;94485.97;;;5.28;100.00
28911;BME280;16028;42.642;23.310;2022-11-15T05:53:57;94480.69;;;5.30;100.00
28911;BME280;16028;42.642;23.310;2022-11-15T05:56:25;94488.41;;;5.30;100.00
28911;BME280;16028;42.642;23.310;2022-11-15T05:58:52;94490.78;;;5.33;100.00
28911;BME280;16028;42.642;23.310;2022-11-15T06:01:20;94488.00;;;5.36;100.00
28911;BME280;16028;42.642;23.310;2022-11-15T06:03:47;94492.56;;;5.45;100.00
28911;BME280;16028;42.642;23.310;2022-11-15T06:06:15;94492.44;;;5.47;100.00
28911;BME280;16028;42.642;23.310;2022-11-15T06:08:41;94488.72;;;5.51;100.00
28911;BME280;16028;42.642;23.310;2022-11-15T06:11:08;94483.88;;;5.33;100.00
28911;BME280;16028;42.642;23.310;2022-11-15T06:13:35;94495.75;;;5.36;100.00
28911;BME280;16028;42.642;23.310;2022-11-15T06:16:02;94497.31;;;5.39;100.00
28911;BME280;16028;42.642;23.310;2022-11-15T06:18:31;94497.31;;;5.39;100.00
28911;BME280;16028;42.642;23.310;2022-11-15T06:20:58;94504.31;;;5.37;100.00
28911;BME280;16028;42.642;23.310;2022-11-15T06:23:27;94498.22;;;5.38;100.00
28911;BME280;16028;42.642;23.310;2022-11-15T06:25:57;94499.16;;;5.37;100.00
28911;BME280;16028;42.642;23.310;2022-11-15T06:28:24;94496.56;;;5.37;100.00
28911;BME280;16028;42.642;23.310;2022-11-15T06:30:51;94498.03;;;5.41;100.00
28911;BME280;16028;42.642;23.310;2022-11-15T06:33:17;94490.28;;;5.41;100.00
28911;BME280;16028;42.642;23.310;2022-11-15T06:35:44;94490.59;;;5.36;100.00
28911;BME280;16028;42.642;23.310;2022-11-15T06:38:11;94487.09;;;5.37;100.00
28911;BME280;16028;42.642;23.310;2022-11-15T06:40:39;94488.75;;;5.38;100.00
28911;BME280;16028;42.642;23.310;2022-11-15T06:43:06;94488.41;;;5.43;100.00
28911;BME280;16028;42.642;23.310;2022-11-15T06:45:33;94482.94;;;5.47;100.00
28911;BME280;16028;42.642;23.310;2022-11-15T06:48:00;94485.22;;;5.52;100.00
28911;BME280;16028;42.642;23.310;2022-11-15T06:50:27;94485.00;;;5.55;100.00
28911;BME280;16028;42.642;23.310;2022-11-15T06:52:54;94484.78;;;5.58;100.00
28911;BME280;16028;42.642;23.310;2022-11-15T06:55:20;94479.72;;;5.56;100.00
28911;BME280;16028;42.642;23.310;2022-11-15T06:57:50;94487.25;;;5.59;100.00
28911;BME280;16028;42.642;23.310;2022-11-15T07:00:18;94490.38;;;5.52;100.00
28911;BME280;16028;42.642;23.310;2022-11-15T07:02:45;94484.69;;;5.47;100.00
28911;BME280;16028;42.642;23.310;2022-11-15T07:05:13;94485.13;;;5.41;100.00
28911;BME280;16028;42.642;23.310;2022-11-15T07:07:41;94482.84;;;5.36;100.00
28911;BME280;16028;42.642;23.310;2022-11-15T07:10:08;94480.19;;;5.38;100.00
28911;BME280;16028;42.642;23.310;2022-11-15T07:12:35;94475.84;;;5.38;100.00
28911;BME280;16028;42.642;23.310;2022-11-15T07:15:08;94475.94;;;5.37;100.00
28911;BME280;16028;42.642;23.310;2022-11-15T07:17:35;94472.34;;;5.39;100.00
28911;BME280;16028;42.642;23.310;2022-11-15T07:20:02;94476.25;;;5.45;100.00
28911;BME280;16028;42.642;23.310;2022-11-15T07:22:28;94473.94;;;5.53;100.00
28911;BME280;16028;42.642;23.310;2022-11-15T07:24:55;94479.72;;;5.56;100.00
28911;BME280;16028;42.642;23.310;2022-11-15T07:27:22;94488.28;;;5.57;100.00
28911;BME280;16028;42.642;23.310;2022-11-15T07:29:49;94476.84;;;5.61;100.00
28911;BME280;16028;42.642;23.310;2022-11-15T07:32:17;94487.25;;;5.59;100.00
28911;BME280;16028;42.642;23.310;2022-11-15T07:34:43;94490.16;;;5.55;100.00
28911;BME280;16028;42.642;23.310;2022-11-15T07:37:12;94484.41;;;5.51;100.00
28911;BME280;16028;42.642;23.310;2022-11-15T07:39:38;94488.50;;;5.54;100.00
28911;BME280;16028;42.642;23.310;2022-11-15T07:42:05;94484.59;;;5.61;100.00
28911;BME280;16028;42.642;23.310;2022-11-15T07:44:48;94480.66;;;5.55;100.00
28911;BME280;16028;42.642;23.310;2022-11-15T07:47:16;94485.94;;;5.54;100.00
28911;BME280;16028;42.642;23.310;2022-11-15T07:49:43;94485.72;;;5.57;100.00
28911;BME280;16028;42.642;23.310;2022-11-15T07:52:11;94486.34;;;5.60;100.00
28911;BME280;16028;42.642;23.310;2022-11-15T07:54:38;94478.66;;;5.71;100.00
28911;BME280;16028;42.642;23.310;2022-11-15T07:57:05;94480.22;;;5.74;100.00
28911;BME280;16028;42.642;23.310;2022-11-15T07:59:32;94480.72;;;5.79;100.00
28911;BME280;16028;42.642;23.310;2022-11-15T08:02:00;94481.53;;;5.79;100.00
28911;BME280;16028;42.642;23.310;2022-11-15T08:04:30;94476.81;;;5.86;100.00
28911;BME280;16028;42.642;23.310;2022-11-15T08:06:58;94476.69;;;5.88;100.00
28911;BME280;16028;42.642;23.310;2022-11-15T08:09:24;94464.50;;;5.90;100.00
28911;BME280;16028;42.642;23.310;2022-11-15T08:11:51;94474.41;;;5.96;100.00
28911;BME280;16028;42.642;23.310;2022-11-15T08:14:18;94475.72;;;6.01;100.00
28911;BME280;16028;42.642;23.310;2022-11-15T08:16:47;94472.44;;;5.99;100.00
28911;BME280;16028;42.642;23.310;2022-11-15T08:19:14;94469.50;;;6.04;100.00
28911;BME280;16028;42.642;23.310;2022-11-15T08:21:42;94470.34;;;6.04;100.00
28911;BME280;16028;42.642;23.310;2022-11-15T08:24:09;94468.03;;;6.12;100.00
28911;BME280;16028;42.642;23.310;2022-11-15T08:26:37;94463.81;;;6.11;100.00
28911;BME280;16028;42.642;23.310;2022-11-15T08:29:03;94463.69;;;6.13;100.00
28911;BME280;16028;42.642;23.310;2022-11-15T08:31:30;94471.81;;;6.19;100.00
28911;BME280;16028;42.642;23.310;2022-11-15T08:33:57;94468.44;;;6.19;100.00
28911;BME280;16028;42.642;23.310;2022-11-15T08:36:24;94465.56;;;6.11;100.00
28911;BME280;16028;42.642;23.310;2022-11-15T08:38:52;94465.78;;;6.08;100.00
28911;BME280;16028;42.642;23.310;2022-11-15T08:41:24;94467.75;;;6.04;100.00
28911;BME280;16028;42.642;23.310;2022-11-15T08:43:52;94458.25;;;6.05;100.00
28911;BME280;16028;42.642;23.310;2022-11-15T08:46:19;94460.44;;;5.98;100.00
28911;BME280;16028;42.642;23.310;2022-11-15T08:48:46;94452.00;;;5.96;100.00
28911;BME280;16028;42.642;23.310;2022-11-15T08:51:13;94448.59;;;5.96;100.00
28911;BME280;16028;42.642;23.310;2022-11-15T08:53:39;94453.31;;;6.02;100.00
28911;BME280;16028;42.642;23.310;2022-11-15T08:56:08;94443.38;;;6.08;100.00
28911;BME280;16028;42.642;23.310;2022-11-15T08:58:36;94450.66;;;6.14;100.00
28911;BME280;16028;42.642;23.310;2022-11-15T09:01:03;94436.38;;;6.21;100.00
28911;BME280;16028;42.642;23.310;2022-11-15T09:03:30;94438.16;;;6.32;100.00
28911;BME280;16028;42.642;23.310;2022-11-15T09:05:58;94438.09;;;6.45;100.00
28911;BME280;16028;42.642;23.310;2022-11-15T09:08:29;94434.59;;;6.46;100.00
28911;BME280;16028;42.642;23.310;2022-11-15T09:10:56;94426.97;;;6.44;100.00
28911;BME280;16028;42.642;23.310;2022-11-15T09:13:24;94425.19;;;6.45;100.00
28911;BME280;16028;42.642;23.310;2022-11-15T09:15:51;94426.59;;;6.49;100.00
28911;BME280;16028;42.642;23.310;2022-11-15T09:18:17;94421.22;;;6.52;100.00
28911;BME280;16028;42.642;23.310;2022-11-15T09:20:45;94415.72;;;6.56;100.00
28911;BME280;16028;42.642;23.310;2022-11-15T09:23:12;94412.06;;;6.59;100.00
28911;BME280;16028;42.642;23.310;2022-11-15T09:25:39;94404.66;;;6.54;100.00
28911;BME280;16028;42.642;23.310;2022-11-15T09:28:06;94409.94;;;6.53;100.00
28911;BME280;16028;42.642;23.310;2022-11-15T09:30:34;94406.91;;;6.48;100.00
28911;BME280;16028;42.642;23.310;2022-11-15T09:33:06;94403.94;;;6.52;100.00
28911;BME280;16028;42.642;23.310;2022-11-15T09:35:33;94409.50;;;6.59;100.00
28911;BME280;16028;42.642;23.310;2022-11-15T09:38:00;94399.97;;;6.59;100.00
28911;BME280;16028;42.642;23.310;2022-11-15T09:40:27;94392.94;;;6.61;100.00
28911;BME280;16028;42.642;23.310;2022-11-15T09:43:06;94386.84;;;6.62;100.00
28911;BME280;16028;42.642;23.310;2022-11-15T09:45:42;94387.28;;;6.56;100.00
28911;BME280;16028;42.642;23.310;2022-11-15T09:48:36;94386.13;;;6.60;100.00
28911;BME280;16028;42.642;23.310;2022-11-15T09:51:11;94375.66;;;6.62;100.00
28911;BME280;16028;42.642;23.310;2022-11-15T09:56:26;94379.09;;;6.73;100.00
28911;BME280;16028;42.642;23.310;2022-11-15T09:59:02;94367.94;;;6.84;100.00
28911;BME280;16028;42.642;23.310;2022-11-15T10:01:42;94371.72;;;6.91;100.00
28911;BME280;16028;42.642;23.310;2022-11-15T10:04:11;94366.06;;;6.97;100.00
28911;BME280;16028;42.642;23.310;2022-11-15T10:06:47;94360.41;;;7.03;100.00
28911;BME280;16028;42.642;23.310;2022-11-15T10:09:20;94351.97;;;7.01;100.00
28911;BME280;16028;42.642;23.310;2022-11-15T10:11:49;94343.00;;;7.05;100.00
28911;BME280;16028;42.642;23.310;2022-11-15T10:14:19;94343.72;;;7.07;100.00
28911;BME280;16028;42.642;23.310;2022-11-15T10:17:13;94340.63;;;7.24;100.00
28911;BME280;16028;42.642;23.310;2022-11-15T10:19:50;94341.84;;;7.20;100.00
28911;BME280;16028;42.642;23.310;2022-11-15T10:22:26;94337.13;;;7.25;100.00
28911;BME280;16028;42.642;23.310;2022-11-15T10:25:06;94333.94;;;7.33;100.00
28911;BME280;16028;42.642;23.310;2022-11-15T10:27:38;94327.91;;;7.43;100.00
28911;BME280;16028;42.642;23.310;2022-11-15T10:30:11;94325.66;;;7.50;100.00
28911;BME280;16028;42.642;23.310;2022-11-15T10:32:40;94319.88;;;7.58;100.00
28911;BME280;16028;42.642;23.310;2022-11-15T10:35:19;94320.47;;;7.61;100.00
28911;BME280;16028;42.642;23.310;2022-11-15T10:37:47;94312.66;;;7.72;100.00
28911;BME280;16028;42.642;23.310;2022-11-15T10:40:19;94306.44;;;7.75;100.00
28911;BME280;16028;42.642;23.310;2022-11-15T10:42:47;94305.69;;;7.84;100.00
28911;BME280;16028;42.642;23.310;2022-11-15T10:45:25;94298.75;;;7.84;100.00
28911;BME280;16028;42.642;23.310;2022-11-15T10:48:21;94300.69;;;7.92;97.75
28911;BME280;16028;42.642;23.310;2022-11-15T10:50:50;94295.06;;;7.87;98.86
28911;BME280;16028;42.642;23.310;2022-11-15T10:53:23;94292.59;;;7.85;99.83
28911;BME280;16028;42.642;23.310;2022-11-15T10:55:53;94280.69;;;7.94;100.00
28911;BME280;16028;42.642;23.310;2022-11-15T10:58:27;94276.78;;;7.99;97.75
28911;BME280;16028;42.642;23.310;2022-11-15T11:01:08;94272.72;;;8.07;96.43
28911;BME280;16028;42.642;23.310;2022-11-15T11:03:38;94268.25;;;8.09;94.79
28911;BME280;16028;42.642;23.310;2022-11-15T11:06:10;94264.25;;;8.05;95.14
28911;BME280;16028;42.642;23.310;2022-11-15T11:08:37;94260.59;;;8.07;96.35
28911;BME280;16028;42.642;23.310;2022-11-15T11:11:05;94251.25;;;8.16;96.26
28911;BME280;16028;42.642;23.310;2022-11-15T11:13:33;94256.47;;;8.25;98.20
28911;BME280;16028;42.642;23.310;2022-11-15T11:19:13;94245.53;;;8.63;98.58
28911;BME280;16028;42.642;23.310;2022-11-15T11:21:48;94251.56;;;8.73;93.85
28911;BME280;16028;42.642;23.310;2022-11-15T11:24:21;94246.94;;;8.77;90.22
28911;BME280;16028;42.642;23.310;2022-11-15T11:27:04;94236.00;;;8.73;91.12
28911;BME280;16028;42.642;23.310;2022-11-15T11:29:44;94228.91;;;8.75;91.83
28911;BME280;16028;42.642;23.310;2022-11-15T11:32:38;94225.41;;;8.86;92.77
28911;BME280;16028;42.642;23.310;2022-11-15T11:35:13;94207.94;;;8.88;92.91
28911;BME280;16028;42.642;23.310;2022-11-15T11:37:47;94207.66;;;8.91;91.64
28911;BME280;16028;42.642;23.310;2022-11-15T11:40:24;94206.19;;;8.98;90.88
28911;BME280;16028;42.642;23.310;2022-11-15T11:42:55;94205.09;;;9.10;92.72
28911;BME280;16028;42.642;23.310;2022-11-15T11:45:36;94194.75;;;9.20;93.45
28911;BME280;16028;42.642;23.310;2022-11-15T11:48:12;94188.88;;;9.27;93.36
28911;BME280;16028;42.642;23.310;2022-11-15T11:50:42;94179.19;;;9.39;92.34
28911;BME280;16028;42.642;23.310;2022-11-15T11:53:14;94183.72;;;9.46;88.86
28911;BME280;16028;42.642;23.310;2022-11-15T11:55:44;94178.34;;;9.57;84.59
28911;BME280;16028;42.642;23.310;2022-11-15T11:58:14;94184.09;;;9.61;83.45
28911;BME280;16028;42.642;23.310;2022-11-15T12:00:51;94179.34;;;9.56;84.19
28911;BME280;16028;42.642;23.310;2022-11-15T12:03:30;94170.28;;;9.51;84.87
28911;BME280;16028;42.642;23.310;2022-11-15T12:06:09;94155.97;;;9.56;87.53
28911;BME280;16028;42.642;23.310;2022-11-15T12:08:49;94152.13;;;9.61;87.16
28911;BME280;16028;42.642;23.310;2022-11-15T12:11:22;94158.56;;;9.66;87.74
28911;BME280;16028;42.642;23.310;2022-11-15T12:14:01;94148.28;;;9.74;87.75
28911;BME280;16028;42.642;23.310;2022-11-15T12:16:31;94146.50;;;9.84;87.68
28911;BME280;16028;42.642;23.310;2022-11-15T12:19:00;94144.13;;;10.00;87.77
28911;BME280;16028;42.642;23.310;2022-11-15T12:21:34;94138.38;;;10.16;88.21
28911;BME280;16028;42.642;23.310;2022-11-15T12:24:06;94131.59;;;10.33;84.08
28911;BME280;16028;42.642;23.310;2022-11-15T12:26:38;94126.13;;;10.36;85.25
28911;BME280;16028;42.642;23.310;2022-11-15T12:29:14;94121.53;;;10.47;83.95
28911;BME280;16028;42.642;23.310;2022-11-15T12:31:45;94125.09;;;10.56;80.31
28911;BME280;16028;42.642;23.310;2022-11-15T12:34:36;94120.66;;;10.56;78.90
28911;BME280;16028;42.642;23.310;2022-11-15T12:40:34;94121.06;;;10.34;79.56
28911;BME280;16028;42.642;23.310;2022-11-15T12:45:45;94103.66;;;10.35;91.67
28911;BME280;16028;42.642;23.310;2022-11-15T12:52:06;94107.56;;;10.11;98.16
28911;BME280;16028;42.642;23.310;2022-11-15T12:57:38;94101.16;;;9.60;99.58
28911;BME280;16028;42.642;23.310;2022-11-15T13:03:26;94098.00;;;9.66;99.93
28911;BME280;16028;42.642;23.310;2022-11-15T13:06:06;94090.63;;;9.61;100.00
28911;BME280;16028;42.642;23.310;2022-11-15T13:08:38;94090.63;;;9.61;99.94
28911;BME280;16028;42.642;23.310;2022-11-15T13:14:48;94087.44;;;9.67;97.56
28911;BME280;16028;42.642;23.310;2022-11-15T13:17:33;94088.25;;;9.77;98.68
28911;BME280;16028;42.642;23.310;2022-11-15T13:20:18;94083.06;;;9.77;97.97
28911;BME280;16028;42.642;23.310;2022-11-15T13:22:47;94085.81;;;9.76;98.29
28911;BME280;16028;42.642;23.310;2022-11-15T13:25:19;94078.41;;;9.81;93.59
28911;BME280;16028;42.642;23.310;2022-11-15T13:27:50;94077.31;;;9.74;94.17
28911;BME280;16028;42.642;23.310;2022-11-15T13:30:21;94071.34;;;9.64;94.71
28911;BME280;16028;42.642;23.310;2022-11-15T13:32:49;94072.88;;;9.56;95.33
28911;BME280;16028;42.642;23.310;2022-11-15T13:35:20;94062.50;;;9.56;95.38
28911;BME280;16028;42.642;23.310;2022-11-15T13:37:48;94075.72;;;9.63;95.54
28911;BME280;16028;42.642;23.310;2022-11-15T13:40:25;94071.75;;;9.69;96.19